22ème Rallye Terre des Causses
Championnat de France des Rallyes sur Terre
1 1 CUOQ Jean-Marie/GRANDEMANGE Marielle Citroën C4 WRC FA 8W 11:21,8 110km/h 1
2 3 MAURIN Julien/URAL Olivier Citroën DS3 WRC A 8W 11:37,5 +00:15,7 +00:15,7 1
3 4 DURBEC Thibault/RENUCCI Jacques-Julien Citroën DS3 WRC A 8W 11:50,7 +00:28,9 +00:13,2 1
4 14 FALCO Jean-Marc/BOUERI Jonathan Peugeot 208 T16 R 5 11:52,3 +00:30,5 +00:01,6 1
5 12 BERFA Jordan/AUGUSTIN Damien HUYNDAI i20 R5 R 5 11:59,6 +00:37,8 +00:07,3 1
6 2 BAUD Lionel/CRAEN Fabien Ford Focus WRC A 8W 12:04,2 +00:42,4 +00:04,6 1
7 11 GILBERT Quentin/JAMOUL Renaud Skoda Fabia R5 R 5 12:08,7 +00:46,9 +00:04,5
8 8 RAOUX Jean-Michel/MAGAT Laurent Citroën DS3 WRC A 8W 12:19,8 +00:58,0 +00:11,1 1
9 16 PETIT Jean-Eric/MAURIN Mathieu Ford Fiesta R5 R 5 12:23,6 +01:01,8 +00:03,8 1
10 9 FERAUD Cyrille/DUCHEMIN Aymeric Citroën C4 WRC FA 8W 12:24,6 +01:02,8 +00:01,0 1
11 19 MORDACQ Arnaud/RATIER Marie-Noelle Mitsubishi Lancer Evo9 N 4 12:26,5 +01:04,7 +00:01,9 1
12 18 PONS Xavier/ORIOL Julia Peugeot 208 T16 R 5 12:26,9 +01:05,1 +00:00,4
13 7 CLOT Charles/LEON Thierry Ford Fiesta WRC A 8W 12:32,3 +01:10,5 +00:05,4 1
14 38 MOREL Jean-Luc/GIDEL Philippe Subaru Impreza WRX FN 4 12:42,2 +01:20,4 +00:09,9
15 39 BENIER Thomas/PRASSE Cédric Subaru Impreza WRX N 4 12:48,3 +01:26,5 +00:06,1 1
16 6 ROUSSET Eric/GOSSET Jean-David Citroën Xsara WRC FA 8W 12:53,9 +01:32,1 +00:05,6
17 59 RIBAUD Quentin/BALME Benoît Peugeot 208 VTI R 2 12:54,0 +01:32,2 +00:00,1 1 2 3
18 17 FRAU Richard/GASTINEL Jean-Francois Ford Fiesta R5 R 5 12:59,8 +01:38,0 +00:05,8 1
19 50 VEYRARD Didier/TARDY Vincent Subaru Impreza STI FN 4 13:02,2 +01:40,4 +00:02,4
20 54 PELLIER Laurent/NEYRET-GIGOT Benoît Peugeot 208 VTI R 2 13:03,8 +01:42,0 +00:01,6 3
21 61 GAGO Diogo/DEL BARRIO GARCIA Rodolfo Peugeot 208 VTI R 2 13:04,6 +01:42,8 +00:00,8 3
22 20 GAIDOZ Hervé/RICHARD François Subaru Impreza WRX FA 8 13:05,6 +01:43,8 +00:01,0 1
23 60 LARIO Taisko/RYYNANEN Sami Peugeot 208 VTI R 2 13:06,0 +01:44,2 +00:00,4 3
24 57 LLARENA Efren/FERNANDEZ Sara Peugeot 208 VTI R 2 13:06,9 +01:45,1 +00:00,9 3
25 76 COLNEY Thierry/FORTMANN Patrick Citroën DS3 R3 R 3 13:08,7 +01:46,9 +00:01,8 1 2
26 40 MARTI Christian/LAVIALE Jean-Marc Mitsubishi Lancer Evo9 N 4 13:09,6 +01:47,8 +00:00,9 1
27 52 JULIA David/AUBERTIN Ludovic Peugeot 206 Rc F2 14 13:14,3 +01:52,5 +00:04,7 1 2
28 35 MORDACQ Laurent/MORTIER Hervé Mitsubishi Lancer Evo9 R 4 13:15,5 +01:53,7 +00:01,2 1
29 70 PINHEIRO Karl-Alexandre/LE FLOCH Franck Peugeot 208 VTI R 2 13:15,8 +01:54,0 +00:00,3 3
30 116 RAYNAUD Gabriel/JULIEN William Seat Ibiza GTI F2 14 13:18,7 +01:56,9 +00:02,9 1 2
31 15 BESSON Jean-Pascal/ROISSAC Patrice Skoda Fabia R5 R 5 13:18,8 +01:57,0 +00:00,1 1
32 64 HAIGH-SMITH Ashley/BURNS Niall Peugeot 208 VTI R 2 13:20,0 +01:58,2 +00:01,2 3
33 21 GIRAUD Emmanuel/GIRAUD Grégory Mitsubishi Lancer Evo8 FA 8 13:24,2 +02:02,4 +00:04,2
34 42 CONDAMINES Florian/DELMAS Cyril Subaru Impreza N 4 13:24,5 +02:02,7 +00:00,3
35 36 SALIN Daniel/SALIN Brigitte Subaru Impreza WRX R 4 13:24,8 +02:03,0 +00:00,3
36 100 VATANEN Max/BEURET Mélinda Ford Fiesta R2 R 2 13:26,7 +02:04,9 +00:01,9
37 124 MASCLAUX Arnaud/CORMERAIS Loïc Renault Clio Ragnotti F2 14 13:28,0 +02:06,2 +00:01,3 1 2
38 37 DESANGLES Yanis/THERON Nicolas Subaru Impreza WRX R 4 13:28,7 +02:06,9 +00:00,7
39 62 SAHILA Aki/SUORSA Rami Peugeot 208 VTI R 2 13:30,3 +02:08,5 +00:01,6 3
40 44 GUIGNARD Eric/MEFFRE Didier Subaru Impreza N 4 13:31,4 +02:09,6 +00:01,1
41 71 RAMBAUD Sébastien/RICOU Brice Peugeot 208 VTI R 2 13:31,8 +02:10,0 +00:00,4 3
42 65 BOSCH Florentin/LAZZARINI Jean-Paul Peugeot 208 VTI R 2 13:31,9 +02:10,1 +00:00,1 3
43 47 CAMPAGNOLI Gabriele/ARENA Nicola Subaru Impreza WRX N 4 13:32,9 +02:11,1 +00:01,0
44 30 CHIAVARO Daniel/DUPANLOUP Alexandra Subaru Impreza Sti FA 8 13:34,8 +02:13,0 +00:01,9
45 67 JAMET Jérémy/SECACHE Michaël Peugeot 208 VTI R 2 13:37,1 +02:15,3 +00:02,3 3
46 72 TAVENEAU Sam/POINT Clément Peugeot 208 VTI R 2 13:39,5 +02:17,7 +00:02,4 3
47 83 MARCHAL Eddy/JOLE Damien Citroën Saxo T4 FA 6K 13:41,0 +02:19,2 +00:01,5 1
48 81 VIALLE Lilian/GHIRARDELLO Manuel Renault Clio R3 R 3 13:41,0 +02:19,2 1 2
49 63 WAGEMANS Joachim/DU PAN Anton Peugeot 208 VTI R 2 13:41,5 +02:19,7 +00:00,5 3
50 103 TEVELLE Cédric/FACCIO Alexandra Peugeot 206 Rc FA 7 13:43,6 +02:21,8 +00:02,1
51 45 ECK Jean-Luc/ECK Aurélien Subaru Impreza N 4 13:43,7 +02:21,9 +00:00,1
52 95 GOUY Quentin/THILLIEZ Quentin Citroën C2 R2 R 2 13:44,6 +02:22,8 +00:00,9
53 68 CUFFI Tommaso/BOSI Massimiliano Peugeot 208 VTI R 2 13:46,3 +02:24,5 +00:01,7 3
54 46 LOPEZ Yannick/LOPEZ Brice Subaru Impreza WRX N 4 13:53,6 +02:31,8 +00:07,3
55 43 PUEL Gérard/PUEL Caroline Mitsubishi Lancer Evo8 FN 4 13:54,8 +02:33,0 +00:01,2
56 80 GUINCHARD Emmanuel/CHATELAIN Mickaël Peugeot 207 Rc R 3 13:56,9 +02:35,1 +00:02,1
57 22 LOPEZ Etienne/MERCIER Marjorie Subaru Impreza WRX FA 8 13:59,2 +02:37,4 +00:02,3
58 94 JOUINES Jean/CHABBERT Martin Opel Adam Rally R FR2 14:00,0 +02:38,2 +00:00,8
59 10 "PIANO"/COTTU Paolo Subaru Impreza WRC FA 8W 14:02,6 +02:40,8 +00:02,6
60 66 MAISANO Brandon/PEBEYRE Pierre Peugeot 208 VTI R 2 14:02,7 +02:40,9 +00:00,1 3
61 113 BLANCK Lionel/BLANCK Arnaud Peugeot 206 Rc F2 14 14:03,6 +02:41,8 +00:00,9
62 53 VITAL Jean-Pierre/DECOUZON Pierre Citroën Saxo VTS F2 13 14:03,9 +02:42,1 +00:00,3 1 2
63 48 PRIOLO Laurent/DALMAS Yannick Mitsubishi Lancer Evo9 N 4 14:03,9 +02:42,1
64 78 BOUCHET Guillaume/BLAMPEY Fabien Peugeot 207 Rc R 3 14:04,2 +02:42,4 +00:00,3
65 114 BOUZID Lilian/VERGNES Antony Peugeot 306 S16 F2 14 14:04,4 +02:42,6 +00:00,2
66 87 SALGUES Gilles/MOUYSSET Jérôme Citroën Saxo T4 FA 6K 14:04,5 +02:42,7 +00:00,1
67 5 CHAYNES Gary/TRIBOUT Christian Citroën C4 WRC FA 8W 14:06,2 +02:44,4 +00:01,7 1
68 132 SABATIER Florent/SANTIAGO Thomas Peugeot 106 S16 FA 6 14:06,5 +02:44,7 +00:00,3 1 2
69 126 VANTILLARD Jean-Marc/DARRAS Pascaline Peugeot 206 Rc FN 3 14:07,5 +02:45,7 +00:01,0
70 111 PILLARD Cédric/NOHARET Laurent Peugeot 206 Rc F2 14 14:08,5 +02:46,7 +00:01,0 1 2
71 97 MARGAILLAN Hugo/POUJOL Sébastien Ford Fiesta R2 R 2 14:09,1 +02:47,3 +00:00,6
72 102 SOUFFEZ Frédéric/PRUVOST Astrid Peugeot 206 Rc FA 7 14:09,1 +02:47,3 1 2
73 41 FONTAINE Fabien/FONTAINE Bastien Mitsubishi Lancer Evo5 FN 4 14:09,6 +02:47,8 +00:00,5
74 90 COLOMBE Geoffroy/FABREGUE Régis Peugeot 206 XS FA 6K 14:10,9 +02:49,1 +00:01,3
75 125 BELLIARDO Daniel/BRAQUET Jean-Baptiste Peugeot 306 S16 FN 3 14:13,7 +02:51,9 +00:02,8
76 77 DAZY Jean-Pierre/LOIZEAUX Didier Renault Clio R3 R 3 14:14,4 +02:52,6 +00:00,7 1 2
77 98 DEFANTE Romain/TEMPIER Romain Ford Fiesta R2 R 2 14:22,3 +03:00,5 +00:07,9
78 91 BERTON Charlotte/TAILLANDIER Thomas Citroën Saxo T4 FA 6K 14:22,9 +03:01,1 +00:00,6
79 89 CREPIN Maude/FRANCOIS Léa Citroën Saxo T4 FA 6K 14:25,5 +03:03,7 +00:02,6
80 75 VENTURINI Henri/CORONA Fabrice Peugeot 208 VTI R 2 14:28,2 +03:06,4 +00:02,7 3
81 86 MARCOBAL Thierry/MARCOBAL-BASTIDE Cantin Citroën Saxo T4 FA 6K 14:28,9 +03:07,1 +00:00,7
82 112 REGORD Hervé/REGORD Camille Peugeot 205 GTI F2 14 14:29,2 +03:07,4 +00:00,3 1 2
83 115 MORARD Philippe/GROLIER Cédric Citroën ZX 16V F2 14 14:29,4 +03:07,6 +00:00,2
84 120 RIEU Vincent/DEIXONNE Charles Renault Clio Ragnotti F2 14 14:30,9 +03:09,1 +00:01,5
85 134 RALITE Christophe/ABBAL Marie Peugeot 106 S16 FA 6 14:32,0 +03:10,2 +00:01,1
86 99 FOTIA Anthony/MILLET Kévin Ford Fiesta R2 R 2 14:33,3 +03:11,5 +00:01,3
87 73 MOLLARD Alexandre/EYMIN PETOT Nicolas Peugeot 208 VTI R 2 14:38,2 +03:16,4 +00:04,9 3
88 127 LESCURE Philippe/ESCAICH Bertrand Peugeot 306 S16 FN 3 14:43,7 +03:21,9 +00:05,5
89 145 BRISSON Eddy/MASSON Pascal Suzuki Swift FN 2 14:45,1 +03:23,3 +00:01,4
90 123 BALMONET/MONICO Celia Peugeot 309 GTI F2 14 14:48,6 +03:26,8 +00:03,5
91 118 SANHES Yves/SANHES Christine B.M.W. 318i Compact F2 14 14:51,0 +03:29,2 +00:02,4
92 92 BRENIAUX Sébastien/JACQUES Anthony Peugeot 206 XS FA 6K 14:54,4 +03:32,6 +00:03,4
93 135 RAMEL Olivier/BODENMANN Jacques-Victor Peugeot 106 GT FA 6 14:54,4 +03:32,6
94 96 PUVERIC Gilles/LE BORGNE Didier Peugeot 208 VTI R 2 14:54,7 +03:32,9 +00:00,3
95 104 FRELAUT Yohann/CASSAGNADE Pascal Peugeot 206 Rc FA 7 14:54,9 +03:33,1 +00:00,2
96 88 QUARROZ Damien/VOLPI Cécile Citroën Saxo T4 FA 6K 14:56,8 +03:35,0 +00:01,9
97 136 FOURNIER Nicolas/VATTEAU Kévin Peugeot 206 XS F2 13 14:57,5 +03:35,7 +00:00,7
98 151 ROCHE Ivan/GREVOT Florian Peugeot 106 XSI F2 12 14:59,8 +03:38,0 +00:02,3 1 2
99 148 LATIEZE Yvan/GOUY Cindy Peugeot 106 S16 FN 2 15:06,8 +03:45,0 +00:07,0
100 106 GELLUSSEAU Luc/DEJOUX Charly Peugeot 306 S16 FA 7 15:12,8 +03:51,0 +00:06,0
101 140 VAYSSE Adrien/LAURENS Clément Peugeot 106 S16 F2 13 15:15,2 +03:53,4 +00:02,4
102 139 GELY Michel/VALENTIN Cédric Peugeot 206 XS F2 13 15:21,0 +03:59,2 +00:05,8
103 146 DOLGOPYATOFF Damien/FRANCOIS Solene Suzuki Swift FN 2 15:22,0 +04:00,2 +00:01,0
104 150 VAILLE Mickaël/SAVA-LOPEZ Sabrina Peugeot 205 GTI FN 2 15:23,1 +04:01,3 +00:01,1
105 119 MOULIN François/BONNET Dorine Renault Clio RS F2 14 15:23,6 +04:01,8 +00:00,5
106 152 VUITTENEZ Victorien/COTE COLISSON Maxime Peugeot 106 XSI FN 1 15:29,4 +04:07,6 +00:05,8
107 153 CEUGNET Sébastien/LUCON Pascal Peugeot 106 XSI FN 1 15:32,6 +04:10,8 +00:03,2
108 26 GLEY Jean-Pierre/AUBANEL Aurélien B.M.W. 325 iX FA 8 15:34,4 +04:12,6 +00:01,8
109 122 VIDAL Marc/MONTARON Loïc Peugeot 309 GTI F2 14 15:39,3 +04:17,5 +00:04,9
110 133 CHOQUER Mickaël/GROULIER Vincent Peugeot 206 XS FA 6 15:41,0 +04:19,2 +00:01,7
111 144 TODESCHINI Florent/PORCHERON Giovanni Dacia Logan F2 13 15:42,4 +04:20,6 +00:01,4
112 108 GUILLON Jean-Luc/GUILLON Thibault Peugeot 206 GT FA 7 15:42,8 +04:21,0 +00:00,4
113 110 CLEMENT Frédéric/COSTES François Peugeot 206 GT F2 14 15:43,2 +04:21,4 +00:00,4 1 2
114 142 BRENGUES Jean-Marie/BRENGUES Mélanie Peugeot 205 GTI F2 13 15:47,0 +04:25,2 +00:03,8
115 130 RESSOUCHE Charlotte/BARDOUX Pauline Ford Fiesta ST N 3 15:59,2 +04:37,4 +00:12,2
116 137 RAKOTOMALALA Andry/GORGET Chloé Peugeot 106 S16 F2 13 16:13,3 +04:51,5 +00:14,1
117 147 DI PAOLO Alain/MORILLON Frederika Peugeot 106 S16 FN 2 16:57,4 +05:35,6 +00:44,1
118 105 GAUTHIER Bernard/BLANQUET Muriel Peugeot 306 S16 FA 7 16:58,2 +05:36,4 +00:00,8
119 141 PICARD Erick/PONTILLE Hervé Dacia Logan F2 13 17:41,6 +06:19,8 +00:43,4
120 154 BES Yves/LE PICHON Christelle Peugeot 106 XR F2 11 17:53,8 +06:32,0 +00:12,2
121 155 SOUBIROUX Vincent/VIGUIE Florian Renault Clio F2 11 18:35,0 +07:13,2 +00:41,2
122 117 ROUCOULY Mathieu/GILHODES Jean-Louis Peugeot 309 GTI 16S F2 14 22:45,4 +11:23,6 +04:10,4
Clt Equipage Voiture Gr/Cl Temps Ecart 1er Ecart préc. Catégories
Commentaires: © PatricK Soft  
(Temps forfaitaires=couleur bleue)
Classés:122

Epreuve: Groupe: Catégorie:

 
Retour
Classement ES8-La Brunie - Trigovie (21.000 km)